Amarant — CQSF — position and weather

sailwx.info

Track history (hours):
 
Tides and Currents Weather Stations Pressure Air Temp Water Temp Dewpoint Dewpoint Depression Visibility Wind Speed Wind Dir Waves Ship Positions

Amarant

Last reported at 2015-May-24 11:09 UTC. Time now 2015-May-24 19:26 UTC.
Position N 57°42' E 009°56'.

Length 120 m; draft 7.4 m.

Type: Tanker. MMSI: 255623000.

Date/timePositionNaut miles runAvg speedWind from/ knotsBaromVisibWave heightAir tempDewpointWater temp
2015-May-24 11:09N 57°42' E 009°56'1211.4
2015-May-24 10:06N 57°46' E 010°17'710.9
2015-May-24 09:29N 57°48' E 010°30'910.2
2015-May-24 08:33N 57°49' E 010°47'1211.6
2015-May-24 07:33N 57°44' E 011°07'1212.5
2015-May-24 06:34N 57°38' E 011°28'8 7.4
2015-May-24 05:32N 57°36' E 011°41'0 0.0
2015-May-24 04:32N 57°36' E 011°41'0 0.0
2015-May-24 03:32N 57°36' E 011°41'0 0.0
2015-May-24 02:29N 57°36' E 011°41'7 7.1
2015-May-24 01:33N 57°29' E 011°40'1312.7
2015-May-24 00:33N 57°17' E 011°49'1312.6
2015-May-23 23:33N 57°05' E 011°57'1212.4
2015-May-23 22:33N 56°54' E 012°04'1312.8
2015-May-23 21:33N 56°41' E 012°11'1312.8
2015-May-23 20:33N 56°29' E 012°15'1312.7
2015-May-23 19:33N 56°17' E 012°21'1312.9
2015-May-23 18:33N 56°06' E 012°35'1212.5
2015-May-23 17:33N 55°55' E 012°45'1212.2
2015-May-23 16:33N 55°43' E 012°41'10 9.6
2015-May-23 15:33N 55°33' E 012°42'1211.5
2015-May-23 14:33N 55°22' E 012°40'1110.5
2015-May-23 13:33N 55°16' E 012°55'1312.5
2015-May-23 12:33N 55°15' E 013°17'3712.2
2015-May-23 09:31N 55°18' E 014°22'1313.0
2015-May-23 08:33N 55°27' E 014°37'1413.4
2015-May-23 07:31N 55°34' E 014°58'1413.2
2015-May-23 06:29N 55°41' E 015°19'10511.6
2015-May-22 21:30N 57°05' E 017°13'1212.6
2015-May-22 20:33N 57°16' E 017°18'1312.6
2015-May-22 19:33N 57°29' E 017°23'1312.5
2015-May-22 18:29N 57°42' E 017°28'17 0.5
2015-May-21 08:32N 57°25' E 017°22'1414.7
2015-May-21 07:33N 57°11' E 017°16'1814.4
2015-May-21 06:19N 56°54' E 017°09'9012.8
2015-May-20 23:16N 55°41' E 015°34'1014.2
2015-May-20 22:33N 55°36' E 015°18'1414.3
2015-May-20 21:34N 55°29' E 014°56'1414.1
2015-May-20 20:34N 55°21' E 014°36'1414.1
2015-May-20 19:33N 55°10' E 014°20'4013.5
2015-May-20 16:33N 55°11' E 013°10'1414.2
2015-May-20 15:33N 55°16' E 012°46'1110.9
2015-May-20 14:33N 55°26' E 012°41'1212.3
2015-May-20 13:33N 55°37' E 012°53'1111.4
2015-May-20 12:34N 55°48' E 012°47'1312.8
2015-May-20 11:33N 55°59' E 012°38'1110.9
2015-May-20 10:34N 56°09' E 012°27'1414.2
2015-May-20 09:33N 56°17' E 012°06'1713.8
2015-May-20 08:21N 56°33' E 011°57'1113.9
2015-May-20 07:34N 56°43' E 011°53'1414.3
2015-May-20 06:33N 56°57' E 011°45'1414.3
2015-May-20 05:33N 57°10' E 011°36'1414.4
2015-May-20 04:33N 57°24' E 011°27'1413.6
2015-May-20 03:33N 57°34' E 011°10'1414.4
2015-May-20 02:33N 57°44' E 010°51'19014.6
2015-May-19 13:33N 55°35' E 006°38'1715.1
2015-May-19 12:27N 55°20' E 006°23'6615.0
2015-May-19 08:04N 54°23' E 005°25'815.1
2015-May-19 07:32N 54°16' E 005°18'1414.7
2015-May-19 06:33N 54°03' E 005°07'1514.8
2015-May-19 05:33N 53°49' E 005°00'1615.6
2015-May-19 04:33N 53°35' E 004°50'1615.6
2015-May-19 03:33N 53°21' E 004°40'1615.9
2015-May-19 02:33N 53°06' E 004°28'4714.1
2015-May-18 23:15N 52°29' E 003°41'3412.6
2015-May-18 20:31N 51°57' E 003°23'1212.4
2015-May-18 19:31N 51°45' E 003°17'1313.0
2015-May-18 18:33N 51°33' E 003°25'1010.6
2015-May-18 17:33N 51°26' E 003°38'1211.8
2015-May-18 16:34N 51°22' E 003°55'1010.1
2015-May-18 15:33N 51°24' E 004°11'9 9.2
2015-May-18 14:33N 51°17' E 004°20'0 0.1
2015-May-18 13:33N 51°17' E 004°20'2 1.9
2015-May-18 12:33N 51°15' E 004°22'0 0.0
2015-May-18 11:33N 51°15' E 004°22'0 0.0
2015-May-18 10:33N 51°15' E 004°22'0 0.0
2015-May-18 09:33N 51°15' E 004°22'0 0.0
2015-May-18 08:33N 51°15' E 004°22'0 0.0
2015-May-18 07:33N 51°15' E 004°22'0 0.0
2015-May-18 06:33N 51°15' E 004°22'0 0.0
2015-May-18 05:33N 51°15' E 004°22'0 0.0
2015-May-18 04:33N 51°15' E 004°22'0 0.0
2015-May-18 03:33N 51°15' E 004°22'0 0.0
2015-May-18 02:33N 51°15' E 004°22'0 0.0
2015-May-18 01:33N 51°15' E 004°22'0 0.0
2015-May-18 00:33N 51°15' E 004°22'0 0.0
2015-May-17 23:33N 51°15' E 004°22'0 0.0
2015-May-17 22:33N 51°15' E 004°22'0 0.0
2015-May-17 21:33N 51°15' E 004°22'0 0.0
2015-May-17 20:33N 51°15' E 004°22'0 0.0
2015-May-17 19:33N 51°15' E 004°22'0 0.0
2015-May-17 18:33N 51°15' E 004°22'0 0.0
2015-May-17 17:33N 51°15' E 004°22'0 0.0
2015-May-17 16:33N 51°15' E 004°22'0 0.0
2015-May-17 15:33N 51°15' E 004°22'0 0.0
2015-May-17 14:33N 51°15' E 004°22'0 0.0
2015-May-17 13:33N 51°15' E 004°22'0 0.0
2015-May-17 12:33N 51°15' E 004°22'0 0.0
2015-May-17 11:33N 51°15' E 004°22'0 0.0
2015-May-17 10:33N 51°15' E 004°22'0 0.0
2015-May-17 09:33N 51°15' E 004°22'0 0.0
2015-May-17 08:33N 51°15' E 004°22'0 0.0
2015-May-17 07:33N 51°15' E 004°22'0 0.0
2015-May-17 06:33N 51°15' E 004°22'0 0.0
2015-May-17 05:33N 51°15' E 004°22'0 0.1
2015-May-17 04:33N 51°15' E 004°22'2 2.1
2015-May-17 03:33N 51°17' E 004°20'1 1.4
2015-May-17 02:33N 51°18' E 004°18'3 2.6
2015-May-17 01:33N 51°20' E 004°16'8 8.4
2015-May-17 00:33N 51°22' E 004°04'1110.6
2015-May-16 23:34N 51°21' E 003°47'1111.1
2015-May-16 22:33N 51°27' E 003°32'10 9.8
2015-May-16 21:34N 51°35' E 003°23'1110.5
2015-May-16 20:33N 51°45' E 003°17'0 0.1
2015-May-16 17:22N 51°46' E 003°18'0 0.0
2015-May-16 16:31N 51°46' E 003°18'0 0.1
2015-May-16 15:03N 51°46' E 003°18'0 0.0
2015-May-16 14:33N 51°46' E 003°18'0 0.0
2015-May-16 04:21N 51°46' E 003°18'0 0.0
2015-May-16 00:24N 51°46' E 003°18'0 0.0
2015-May-15 18:24N 51°46' E 003°18'0 0.0
2015-May-15 17:29N 51°46' E 003°18'0 0.0
2015-May-15 11:15N 51°46' E 003°18'0 0.1
2015-May-15 09:06N 51°45' E 003°18'0 0.0
2015-May-15 08:18N 51°45' E 003°18'0 0.0
2015-May-15 05:30N 51°45' E 003°18'0 0.0
2015-May-15 04:26N 51°45' E 003°18'0 0.0
2015-May-15 03:28N 51°45' E 003°18'17 5.4
2015-May-15 00:23N 52°02' E 003°21'7012.0
2015-May-14 18:31N 53°04' E 004°14'7712.8
2015-May-14 12:31N 54°16' E 005°02'  
Track history (hours):
 
Tides and Currents Weather Stations Pressure Air Temp Water Temp Dewpoint Dewpoint Depression Visibility Wind Speed Wind Dir Waves Ship Positions

Amarant

Last reported at 2015-May-24 11:09 UTC. Time now 2015-May-24 19:26 UTC.
Position N 57°42' E 009°56'.

Length 120 m; draft 7.4 m.

Type: Tanker. MMSI: 255623000.

Date/timePositionNaut miles runAvg speedWind from/ knotsBaromVisibWave heightAir tempDewpointWater temp
2015-May-24 11:09N 57°42' E 009°56'1211.4
2015-May-24 10:06N 57°46' E 010°17'710.9
2015-May-24 09:29N 57°48' E 010°30'910.2
2015-May-24 08:33N 57°49' E 010°47'1211.6
2015-May-24 07:33N 57°44' E 011°07'1212.5
2015-May-24 06:34N 57°38' E 011°28'8 7.4
2015-May-24 05:32N 57°36' E 011°41'0 0.0
2015-May-24 04:32N 57°36' E 011°41'0 0.0
2015-May-24 03:32N 57°36' E 011°41'0 0.0
2015-May-24 02:29N 57°36' E 011°41'7 7.1
2015-May-24 01:33N 57°29' E 011°40'1312.7
2015-May-24 00:33N 57°17' E 011°49'1312.6
2015-May-23 23:33N 57°05' E 011°57'1212.4
2015-May-23 22:33N 56°54' E 012°04'1312.8
2015-May-23 21:33N 56°41' E 012°11'1312.8
2015-May-23 20:33N 56°29' E 012°15'1312.7
2015-May-23 19:33N 56°17' E 012°21'1312.9
2015-May-23 18:33N 56°06' E 012°35'1212.5
2015-May-23 17:33N 55°55' E 012°45'1212.2
2015-May-23 16:33N 55°43' E 012°41'10 9.6
2015-May-23 15:33N 55°33' E 012°42'1211.5
2015-May-23 14:33N 55°22' E 012°40'1110.5
2015-May-23 13:33N 55°16' E 012°55'1312.5
2015-May-23 12:33N 55°15' E 013°17'3712.2
2015-May-23 09:31N 55°18' E 014°22'1313.0
2015-May-23 08:33N 55°27' E 014°37'1413.4
2015-May-23 07:31N 55°34' E 014°58'1413.2
2015-May-23 06:29N 55°41' E 015°19'10511.6
2015-May-22 21:30N 57°05' E 017°13'1212.6
2015-May-22 20:33N 57°16' E 017°18'1312.6
2015-May-22 19:33N 57°29' E 017°23'1312.5
2015-May-22 18:29N 57°42' E 017°28'17 0.5
2015-May-21 08:32N 57°25' E 017°22'1414.7
2015-May-21 07:33N 57°11' E 017°16'1814.4
2015-May-21 06:19N 56°54' E 017°09'9012.8
2015-May-20 23:16N 55°41' E 015°34'1014.2
2015-May-20 22:33N 55°36' E 015°18'1414.3
2015-May-20 21:34N 55°29' E 014°56'1414.1
2015-May-20 20:34N 55°21' E 014°36'1414.1
2015-May-20 19:33N 55°10' E 014°20'4013.5
2015-May-20 16:33N 55°11' E 013°10'1414.2
2015-May-20 15:33N 55°16' E 012°46'1110.9
2015-May-20 14:33N 55°26' E 012°41'1212.3
2015-May-20 13:33N 55°37' E 012°53'1111.4
2015-May-20 12:34N 55°48' E 012°47'1312.8
2015-May-20 11:33N 55°59' E 012°38'1110.9
2015-May-20 10:34N 56°09' E 012°27'1414.2
2015-May-20 09:33N 56°17' E 012°06'1713.8
2015-May-20 08:21N 56°33' E 011°57'1113.9
2015-May-20 07:34N 56°43' E 011°53'1414.3
2015-May-20 06:33N 56°57' E 011°45'1414.3
2015-May-20 05:33N 57°10' E 011°36'1414.4
2015-May-20 04:33N 57°24' E 011°27'1413.6
2015-May-20 03:33N 57°34' E 011°10'1414.4
2015-May-20 02:33N 57°44' E 010°51'19014.6
2015-May-19 13:33N 55°35' E 006°38'1715.1
2015-May-19 12:27N 55°20' E 006°23'6615.0
2015-May-19 08:04N 54°23' E 005°25'815.1
2015-May-19 07:32N 54°16' E 005°18'1414.7
2015-May-19 06:33N 54°03' E 005°07'1514.8
2015-May-19 05:33N 53°49' E 005°00'1615.6
2015-May-19 04:33N 53°35' E 004°50'1615.6
2015-May-19 03:33N 53°21' E 004°40'1615.9
2015-May-19 02:33N 53°06' E 004°28'4714.1
2015-May-18 23:15N 52°29' E 003°41'3412.6
2015-May-18 20:31N 51°57' E 003°23'1212.4
2015-May-18 19:31N 51°45' E 003°17'1313.0
2015-May-18 18:33N 51°33' E 003°25'1010.6
2015-May-18 17:33N 51°26' E 003°38'1211.8
2015-May-18 16:34N 51°22' E 003°55'1010.1
2015-May-18 15:33N 51°24' E 004°11'9 9.2
2015-May-18 14:33N 51°17' E 004°20'0 0.1
2015-May-18 13:33N 51°17' E 004°20'2 1.9
2015-May-18 12:33N 51°15' E 004°22'0 0.0
2015-May-18 11:33N 51°15' E 004°22'0 0.0
2015-May-18 10:33N 51°15' E 004°22'0 0.0
2015-May-18 09:33N 51°15' E 004°22'0 0.0
2015-May-18 08:33N 51°15' E 004°22'0 0.0
2015-May-18 07:33N 51°15' E 004°22'0 0.0
2015-May-18 06:33N 51°15' E 004°22'0 0.0
2015-May-18 05:33N 51°15' E 004°22'0 0.0
2015-May-18 04:33N 51°15' E 004°22'0 0.0
2015-May-18 03:33N 51°15' E 004°22'0 0.0
2015-May-18 02:33N 51°15' E 004°22'0 0.0
2015-May-18 01:33N 51°15' E 004°22'0 0.0
2015-May-18 00:33N 51°15' E 004°22'0 0.0
2015-May-17 23:33N 51°15' E 004°22'0 0.0
2015-May-17 22:33N 51°15' E 004°22'0 0.0
2015-May-17 21:33N 51°15' E 004°22'0 0.0
2015-May-17 20:33N 51°15' E 004°22'0 0.0
2015-May-17 19:33N 51°15' E 004°22'0 0.0
2015-May-17 18:33N 51°15' E 004°22'0 0.0
2015-May-17 17:33N 51°15' E 004°22'0 0.0
2015-May-17 16:33N 51°15' E 004°22'0 0.0
2015-May-17 15:33N 51°15' E 004°22'0 0.0
2015-May-17 14:33N 51°15' E 004°22'0 0.0
2015-May-17 13:33N 51°15' E 004°22'0 0.0
2015-May-17 12:33N 51°15' E 004°22'0 0.0
2015-May-17 11:33N 51°15' E 004°22'0 0.0
2015-May-17 10:33N 51°15' E 004°22'0 0.0
2015-May-17 09:33N 51°15' E 004°22'0 0.0
2015-May-17 08:33N 51°15' E 004°22'0 0.0
2015-May-17 07:33N 51°15' E 004°22'0 0.0
2015-May-17 06:33N 51°15' E 004°22'0 0.0
2015-May-17 05:33N 51°15' E 004°22'0 0.1
2015-May-17 04:33N 51°15' E 004°22'2 2.1
2015-May-17 03:33N 51°17' E 004°20'1 1.4
2015-May-17 02:33N 51°18' E 004°18'3 2.6
2015-May-17 01:33N 51°20' E 004°16'8 8.4
2015-May-17 00:33N 51°22' E 004°04'1110.6
2015-May-16 23:34N 51°21' E 003°47'1111.1
2015-May-16 22:33N 51°27' E 003°32'10 9.8
2015-May-16 21:34N 51°35' E 003°23'1110.5
2015-May-16 20:33N 51°45' E 003°17'0 0.1
2015-May-16 17:22N 51°46' E 003°18'0 0.0
2015-May-16 16:31N 51°46' E 003°18'0 0.1
2015-May-16 15:03N 51°46' E 003°18'0 0.0
2015-May-16 14:33N 51°46' E 003°18'0 0.0
2015-May-16 04:21N 51°46' E 003°18'0 0.0
2015-May-16 00:24N 51°46' E 003°18'0 0.0
2015-May-15 18:24N 51°46' E 003°18'0 0.0
2015-May-15 17:29N 51°46' E 003°18'0 0.0
2015-May-15 11:15N 51°46' E 003°18'0 0.1
2015-May-15 09:06N 51°45' E 003°18'0 0.0
2015-May-15 08:18N 51°45' E 003°18'0 0.0
2015-May-15 05:30N 51°45' E 003°18'0 0.0
2015-May-15 04:26N 51°45' E 003°18'0 0.0
2015-May-15 03:28N 51°45' E 003°18'17 5.4
2015-May-15 00:23N 52°02' E 003°21'7012.0
2015-May-14 18:31N 53°04' E 004°14'7712.8
2015-May-14 12:31N 54°16' E 005°02'  

Dump ship's entire track history